Time;durP1;ratioP1;P1;durP2;ratioP2;P2;SDS_P1;SDS_P2;PMS_P1;PMS_P2;Temp;Humidity;BMP_temperature;BMP_pressure;BME280_temperature;BME280_humidity;BME280_pressure;Samples;Min_cycle;Max_cycle;Signal;HPM_P1;HPM_P2
2022/04/27 00:00:04;;;;;;;2.20;2.00;;;;;;;16.20;54.63;99784.84;4403165;32;32812;-83
2022/04/27 00:02:38;;;;;;;4.53;3.05;;;;;;;15.61;55.62;99789.59;4402226;32;33826;-83
2022/04/27 00:05:07;;;;;;;5.50;3.85;;;;;;;15.08;55.79;99793.84;4403343;32;32800;-83
2022/04/27 00:07:35;;;;;;;5.18;4.20;;;;;;;15.01;55.22;99796.03;4390624;32;34261;-83
2022/04/27 00:10:03;;;;;;;5.07;3.62;;;;;;;15.27;54.33;99796.22;4397359;32;34652;-83
2022/04/27 00:12:34;;;;;;;5.35;4.32;;;;;;;15.91;52.07;99796.59;4390626;32;33361;-84
2022/04/27 00:15:05;;;;;;;7.22;3.90;;;;;;;15.54;53.13;99802.44;4390186;32;33172;-83
2022/04/27 00:17:34;;;;;;;5.00;4.18;;;;;;;15.41;54.16;99803.31;4381446;32;33039;-84
2022/04/27 00:20:05;;;;;;;6.60;4.70;;;;;;;15.56;53.04;99800.53;4389341;32;34820;-84
2022/04/27 00:22:34;;;;;;;4.55;3.47;;;;;;;15.59;52.34;99803.00;4397648;32;33055;-84
2022/04/27 00:25:03;;;;;;;5.07;3.97;;;;;;;15.87;51.59;99809.22;4383504;32;32761;-84
2022/04/27 00:27:32;;;;;;;5.45;3.95;;;;;;;15.87;51.62;99810.09;4397420;32;32589;-83
2022/04/27 00:30:00;;;;;;;6.20;3.67;;;;;;;16.15;50.76;99808.28;4402428;32;33548;-84
2022/04/27 00:32:30;;;;;;;4.47;3.95;;;;;;;16.26;50.12;99804.88;4390584;32;33031;-84
2022/04/27 00:34:58;;;;;;;6.78;3.75;;;;;;;16.09;50.98;99804.22;4402500;32;33539;-83
2022/04/27 00:37:27;;;;;;;10.77;3.95;;;;;;;16.18;50.77;99804.53;4390738;32;32594;-84
2022/04/27 00:39:55;;;;;;;5.75;3.78;;;;;;;16.34;49.69;99807.88;4404039;32;33453;-83
2022/04/27 00:42:23;;;;;;;5.05;3.45;;;;;;;16.30;50.32;99798.41;4392092;32;33696;-83
2022/04/27 00:44:51;;;;;;;4.00;3.10;;;;;;;16.44;49.29;99800.97;4392015;32;32756;-83
2022/04/27 00:47:20;;;;;;;7.55;4.40;;;;;;;16.42;49.61;99813.53;4404371;32;34047;-83
2022/04/27 00:49:52;;;;;;;7.82;4.45;;;;;;;16.69;48.16;99810.81;4391993;32;32872;-82
2022/04/27 00:52:22;;;;;;;5.68;4.53;;;;;;;16.54;48.64;99818.03;4403721;32;34510;-83
2022/04/27 00:54:52;;;;;;;8.18;5.85;;;;;;;16.47;49.28;99815.88;4387746;32;33761;-83
2022/04/27 00:57:20;;;;;;;7.40;5.00;;;;;;;16.30;49.94;99819.72;4388685;32;32783;-84
2022/04/27 00:59:48;;;;;;;9.05;5.60;;;;;;;16.03;50.78;99817.91;4395329;32;33035;-83
2022/04/27 01:02:16;;;;;;;8.52;5.68;;;;;;;15.84;51.61;99823.59;4403853;32;33351;-83
2022/04/27 01:04:45;;;;;;;8.60;5.68;;;;;;;16.15;50.76;99818.06;4391020;32;32891;-83
2022/04/27 01:07:13;;;;;;;8.32;5.55;;;;;;;16.03;51.34;99825.06;4397281;32;33780;-83
2022/04/27 01:09:42;;;;;;;7.65;5.30;;;;;;;16.22;51.26;99822.03;4385949;32;32994;-83
2022/04/27 01:12:10;;;;;;;8.68;6.75;;;;;;;16.16;51.45;99827.75;4404453;32;34736;-84
2022/04/27 01:14:45;;;;;;;8.20;5.32;;;;;;;16.10;52.09;99826.37;4404162;32;32382;-83
2022/04/27 01:17:13;;;;;;;7.62;5.72;;;;;;;16.02;52.02;99826.00;4391850;32;33309;-83
2022/04/27 01:19:48;;;;;;;11.50;6.40;;;;;;;16.02;52.56;99816.22;4398764;32;33137;-83
2022/04/27 01:22:17;;;;;;;9.82;5.60;;;;;;;16.07;52.54;99819.41;4398200;32;34223;-83
2022/04/27 01:24:46;;;;;;;8.43;5.62;;;;;;;15.99;52.71;99827.06;4391563;32;32063;-83
2022/04/27 01:27:15;;;;;;;8.07;5.93;;;;;;;15.95;53.26;99825.56;4404574;32;32487;-83
2022/04/27 01:29:43;;;;;;;11.52;6.10;;;;;;;15.88;54.11;99827.75;4404030;32;33547;-83
2022/04/27 01:32:11;;;;;;;7.85;5.78;;;;;;;15.83;54.68;99829.03;4404257;32;33885;-83
2022/04/27 01:34:39;;;;;;;12.70;6.80;;;;;;;15.99;54.29;99832.38;4391580;32;34790;-83
2022/04/27 01:38:09;;;;;;;8.45;6.32;;;;;;;15.88;54.56;99843.75;4385290;32;32931;-83
2022/04/27 01:40:06;;;;;;;8.88;6.10;;;;;;;15.62;56.21;99850.72;4388221;32;33940;-84
2022/04/27 01:42:34;;;;;;;10.48;6.03;;;;;;;15.59;56.87;99856.22;4404035;32;34520;-83
2022/04/27 01:45:02;;;;;;;10.52;6.62;;;;;;;15.48;57.57;99868.53;4404011;32;33443;-83
2022/04/27 01:47:30;;;;;;;8.65;6.65;;;;;;;15.79;56.91;99867.44;4391267;32;33004;-83
2022/04/27 01:49:58;;;;;;;9.52;7.00;;;;;;;15.40;58.23;99876.97;4403206;32;33742;-83
2022/04/27 01:55:13;;;;;;;10.45;6.70;;;;;;;15.59;58.04;99882.00;4391859;32;33946;-83
2022/04/27 01:57:41;;;;;;;9.68;6.97;;;;;;;15.53;58.37;99877.91;4391683;32;32112;-83
2022/04/27 02:00:09;;;;;;;9.43;7.15;;;;;;;15.37;59.86;99877.16;4404248;32;33479;-83
2022/04/27 02:02:41;;;;;;;15.48;7.10;;;;;;;15.35;60.00;99871.06;4396991;32;34437;-83
2022/04/27 02:05:09;;;;;;;8.65;6.57;;;;;;;15.30;60.83;99870.50;4397207;32;34163;-83
2022/04/27 02:07:37;;;;;;;10.00;6.72;;;;;;;15.34;60.70;99866.72;4391425;32;32229;-83
2022/04/27 02:10:06;;;;;;;9.25;6.47;;;;;;;15.25;61.42;99864.63;4403553;32;33873;-83
2022/04/27 02:12:35;;;;;;;11.75;7.43;;;;;;;15.21;61.54;99860.44;4404064;32;33923;-83
2022/04/27 02:15:06;;;;;;;8.93;6.68;;;;;;;15.13;61.82;99857.38;4391131;32;33164;-83
2022/04/27 02:17:36;;;;;;;11.73;7.45;;;;;;;15.13;61.82;99857.38;4391905;32;33986;-84
2022/04/27 02:20:07;;;;;;;10.00;6.57;;;;;;;15.22;61.37;99847.03;4391101;32;34089;-84
2022/04/27 02:22:35;;;;;;;12.20;6.85;;;;;;;15.20;61.44;99843.63;4397034;32;33976;-83
2022/04/27 02:25:05;;;;;;;11.85;6.97;;;;;;;15.17;61.80;99843.81;4398036;32;33817;-84
2022/04/27 02:27:33;;;;;;;8.52;7.10;;;;;;;15.21;61.65;99842.66;4371646;32;33882;-83
2022/04/27 02:30:05;;;;;;;9.25;7.00;;;;;;;15.13;61.98;99836.13;4403516;32;33167;-83
2022/04/27 02:32:33;;;;;;;11.05;6.97;;;;;;;15.05;62.71;99844.59;4398857;32;33101;-83
2022/04/27 02:35:05;;;;;;;9.20;6.70;;;;;;;15.11;62.65;99839.72;4390910;32;33827;-84
2022/04/27 02:37:34;;;;;;;9.27;6.72;;;;;;;15.18;62.69;99834.03;4397915;32;33136;-84
2022/04/27 02:40:02;;;;;;;9.85;7.45;;;;;;;15.08;63.27;99829.28;4402933;32;33484;-84
2022/04/27 02:42:32;;;;;;;9.80;7.40;;;;;;;15.05;63.36;99826.81;4384851;32;35766;-84
2022/04/27 02:44:59;;;;;;;10.40;7.93;;;;;;;15.06;63.43;99831.19;4399054;32;32747;-84
2022/04/27 02:47:31;;;;;;;13.62;8.30;;;;;;;14.96;64.04;99827.38;4402975;32;33280;-84
2022/04/27 02:52:48;;;;;;;11.93;6.65;;;;;;;15.02;63.71;99834.97;4384654;32;34217;-83
2022/04/27 02:55:16;;;;;;;11.15;7.43;;;;;;;14.82;64.68;99838.00;4403842;32;33670;-84
2022/04/27 02:57:45;;;;;;;10.57;8.23;;;;;;;14.90;64.55;99829.53;4403342;32;32338;-84
2022/04/27 03:00:14;;;;;;;11.43;7.82;;;;;;;14.81;64.81;99831.84;4390539;32;33039;-84
2022/04/27 03:02:43;;;;;;;13.25;7.22;;;;;;;14.89;64.52;99828.69;4403488;32;32995;-83
2022/04/27 03:05:10;;;;;;;12.50;6.95;;;;;;;14.86;64.54;99823.59;4397284;32;33811;-83
2022/04/27 03:07:38;;;;;;;9.73;7.40;;;;;;;14.87;64.63;99825.28;4391391;32;32594;-81
2022/04/27 03:10:08;;;;;;;12.63;7.87;;;;;;;14.73;65.26;99833.25;4391008;32;34529;-82
2022/04/27 03:12:36;;;;;;;14.00;7.37;;;;;;;14.82;65.08;99835.34;4391157;32;33516;-81
2022/04/27 03:15:05;;;;;;;8.68;6.62;;;;;;;14.78;65.01;99834.66;4397321;32;34802;-82
2022/04/27 03:17:34;;;;;;;10.48;7.32;;;;;;;14.73;65.22;99833.25;4403653;32;32704;-83
2022/04/27 03:20:04;;;;;;;10.93;7.87;;;;;;;14.73;65.45;99838.56;4390601;32;33817;-82
2022/04/27 03:22:33;;;;;;;10.40;7.25;;;;;;;14.74;65.50;99840.25;4378511;32;32284;-82
2022/04/27 03:25:03;;;;;;;11.85;7.95;;;;;;;14.64;65.97;99839.09;4390157;32;32636;-82
2022/04/27 03:27:31;;;;;;;10.55;7.12;;;;;;;14.67;66.10;99844.22;4390010;32;33275;-82
2022/04/27 03:30:02;;;;;;;13.88;7.32;;;;;;;14.75;65.46;99847.28;4371043;32;32550;-82
2022/04/27 03:32:37;;;;;;;13.27;7.85;;;;;;;14.82;64.86;99856.63;4396781;32;35815;-83
2022/04/27 03:35:05;;;;;;;11.68;8.27;;;;;;;14.77;65.01;99848.06;4403425;32;33850;-82
2022/04/27 03:37:34;;;;;;;12.18;7.78;;;;;;;14.76;64.92;99854.31;4385152;32;31707;-82
2022/04/27 03:40:02;;;;;;;11.25;7.85;;;;;;;14.72;65.26;99847.47;4403432;32;32965;-81
2022/04/27 03:42:30;;;;;;;13.38;7.47;;;;;;;14.45;66.65;99856.09;4390905;32;33959;-82
2022/04/27 03:44:58;;;;;;;11.45;8.20;;;;;;;14.29;67.19;99853.50;4390872;32;33860;-82
2022/04/27 03:47:27;;;;;;;11.63;7.75;;;;;;;14.56;66.22;99856.34;4397663;32;32936;-81
2022/04/27 03:49:59;;;;;;;11.52;7.47;;;;;;;14.64;65.96;99857.72;4390337;32;33245;-83
2022/04/27 03:52:27;;;;;;;9.82;7.75;;;;;;;14.78;65.11;99858.59;4390733;32;33739;-83
2022/04/27 03:55:00;;;;;;;13.02;8.23;;;;;;;14.75;65.16;99858.75;4381415;32;34083;-83
2022/04/27 03:57:33;;;;;;;13.77;8.18;;;;;;;14.71;65.58;99861.69;4390700;32;31983;-83
2022/04/27 04:00:04;;;;;;;12.65;8.77;;;;;;;14.69;65.82;99864.44;4403082;32;32797;-84
2022/04/27 04:02:40;;;;;;;14.00;8.45;;;;;;;14.69;65.99;99866.25;4393568;32;32927;-83
2022/04/27 04:05:11;;;;;;;10.27;7.30;;;;;;;14.76;65.79;99867.59;4402889;32;34299;-83
2022/04/27 04:07:47;;;;;;;12.15;8.00;;;;;;;14.85;65.55;99867.03;4398798;32;33402;-83
2022/04/27 04:10:20;;;;;;;13.60;8.75;;;;;;;14.81;65.77;99873.47;4397033;32;34282;-83
2022/04/27 04:12:58;;;;;;;10.23;7.60;;;;;;;14.80;65.73;99879.75;4390685;32;34560;-83
2022/04/27 04:15:37;;;;;;;10.40;7.68;;;;;;;14.60;66.22;99880.94;4390554;32;33773;-84
2022/04/27 04:18:08;;;;;;;9.93;7.78;;;;;;;14.80;65.47;99880.59;4402062;32;32120;-83
2022/04/27 04:20:38;;;;;;;11.32;8.27;;;;;;;14.82;65.32;99885.84;4402355;32;32793;-83
2022/04/27 04:23:06;;;;;;;10.40;7.72;;;;;;;14.82;65.15;99894.69;4400814;32;33597;-84
2022/04/27 04:28:31;;;;;;;10.68;8.25;;;;;;;14.78;65.18;99889.63;4398565;32;33845;-83
2022/04/27 04:31:03;;;;;;;10.63;7.97;;;;;;;14.65;65.68;99899.28;4391297;32;33818;-83
2022/04/27 04:33:33;;;;;;;12.98;8.38;;;;;;;14.65;65.77;99904.59;4387680;32;33636;-83
2022/04/27 04:36:03;;;;;;;10.02;6.93;;;;;;;14.60;65.92;99903.06;4399991;32;31552;-83
2022/04/27 04:38:34;;;;;;;13.88;8.00;;;;;;;14.42;66.45;99914.72;4396356;32;33152;-83
2022/04/27 04:41:04;;;;;;;11.43;7.55;;;;;;;14.44;66.39;99907.53;4386971;32;33649;-83
2022/04/27 04:43:37;;;;;;;;;;;;;;;14.56;66.07;99906.84;4398732;32;33758;-83
2022/04/27 04:46:08;;;;;;;11.70;8.10;;;;;;;15.00;63.80;99911.34;4387129;32;34348;-83
2022/04/27 04:48:39;;;;;;;12.10;7.93;;;;;;;15.13;63.28;99907.91;4387430;32;32401;-82
2022/04/27 04:51:09;;;;;;;9.70;7.15;;;;;;;14.88;64.23;99909.41;4392850;32;34010;-82
2022/04/27 04:53:57;;;;;;;11.07;7.70;;;;;;;14.80;65.12;99914.31;4388008;32;34389;-83
2022/04/27 04:56:26;;;;;;;11.55;7.78;;;;;;;15.14;63.24;99906.97;4399240;32;35769;-84
2022/04/27 04:58:54;;;;;;;18.55;7.78;;;;;;;14.89;64.14;99910.25;4399328;32;34268;-84
2022/04/27 05:01:24;;;;;;;15.20;9.07;;;;;;;14.81;64.93;99910.69;4386757;32;34562;-84
2022/04/27 05:03:54;;;;;;;11.30;7.62;;;;;;;14.81;64.56;99910.69;4399106;32;33452;-84
2022/04/27 05:06:28;;;;;;;11.43;8.18;;;;;;;14.85;64.52;99914.88;4399625;32;33233;-83
2022/04/27 05:08:57;;;;;;;13.07;7.97;;;;;;;14.68;65.63;99915.06;4385537;32;33829;-83
2022/04/27 05:11:33;;;;;;;11.65;8.63;;;;;;;14.76;65.64;99924.25;4383504;32;33490;-83
2022/04/27 05:14:11;;;;;;;10.52;7.62;;;;;;;14.98;64.75;99928.31;4398476;32;32948;-83
2022/04/27 05:16:50;;;;;;;13.35;8.13;;;;;;;15.00;65.15;99943.25;4389967;32;32912;-83
2022/04/27 05:19:19;;;;;;;9.52;7.07;;;;;;;14.98;65.29;99931.81;4386695;32;31849;-83
2022/04/27 05:21:50;;;;;;;14.27;8.13;;;;;;;15.07;65.05;99943.72;4377310;32;32829;-84
2022/04/27 05:24:19;;;;;;;11.60;7.95;;;;;;;15.49;62.94;99937.59;4399030;32;34528;-83
2022/04/27 05:26:49;;;;;;;11.70;7.85;;;;;;;15.63;62.19;99936.75;4376846;32;32294;-83
2022/04/27 05:32:05;;;;;;;9.23;7.80;;;;;;;15.56;61.99;99944.25;4385989;32;32575;-85
2022/04/27 05:34:35;;;;;;;10.98;7.85;;;;;;;15.56;63.20;99938.91;4376443;32;32273;-85
2022/04/27 05:37:05;;;;;;;11.80;7.53;;;;;;;15.33;64.41;99944.78;4401567;32;34505;-84
2022/04/27 05:39:34;;;;;;;12.43;7.95;;;;;;;15.36;64.92;99949.94;4389407;32;31431;-85
2022/04/27 05:42:04;;;;;;;9.43;7.53;;;;;;;15.34;64.75;99947.37;4386994;32;34157;-85
2022/04/27 05:44:33;;;;;;;9.32;7.25;;;;;;;15.40;64.19;99955.94;4392792;32;33778;-85
2022/04/27 05:47:04;;;;;;;11.98;7.40;;;;;;;15.47;63.34;99960.78;4388280;32;34188;-85
2022/04/27 05:49:33;;;;;;;10.82;7.18;;;;;;;15.60;62.12;99953.75;4399646;32;33265;-85
2022/04/27 05:52:09;;;;;;;11.27;7.68;;;;;;;15.69;60.85;99956.81;4396724;32;32111;-85
2022/04/27 05:57:13;;;;;;;11.68;7.70;;;;;;;15.54;62.90;99961.28;4397464;32;33318;-85
2022/04/27 05:59:43;;;;;;;14.13;7.93;;;;;;;15.88;60.40;99965.38;4400905;32;32680;-84
2022/04/27 06:02:12;;;;;;;10.00;7.57;;;;;;;16.24;58.29;99958.66;4400725;32;33857;-85
2022/04/27 06:04:41;;;;;;;12.60;7.60;;;;;;;16.05;58.91;99961.66;4400815;32;33109;-85
2022/04/27 06:07:09;;;;;;;9.80;7.10;;;;;;;16.41;56.91;99957.56;4381698;32;33210;-84
2022/04/27 06:09:38;;;;;;;9.05;6.60;;;;;;;16.32;57.13;99957.19;4398397;32;34171;-84
2022/04/27 06:12:11;;;;;;;10.32;6.93;;;;;;;15.90;56.49;99955.47;4396498;32;32133;-85
2022/04/27 06:14:46;;;;;;;9.48;6.70;;;;;;;15.83;57.84;99972.78;4400175;32;33399;-85
2022/04/27 06:17:15;;;;;;;10.23;6.97;;;;;;;16.03;57.03;99968.88;4394370;32;33786;-85
2022/04/27 06:19:43;;;;;;;10.00;6.62;;;;;;;15.83;60.21;99980.78;4401025;32;31498;-84
2022/04/27 06:22:11;;;;;;;9.63;6.05;;;;;;;16.04;59.39;99975.91;4387509;32;33051;-84
2022/04/27 06:24:43;;;;;;;10.20;7.37;;;;;;;16.36;55.20;99979.19;4388001;32;33382;-85
2022/04/27 06:27:13;;;;;;;11.57;7.28;;;;;;;16.12;55.84;99979.78;4388648;32;34100;-84
2022/04/27 06:29:43;;;;;;;11.30;7.80;;;;;;;16.18;56.47;99980.34;4395243;32;33032;-84
2022/04/27 06:32:12;;;;;;;8.88;6.80;;;;;;;16.53;53.66;99970.94;4399484;32;34299;-84
2022/04/27 06:34:40;;;;;;;9.55;6.70;;;;;;;16.63;55.99;99982.72;4393876;32;32580;-84
2022/04/27 06:37:09;;;;;;;8.52;6.70;;;;;;;16.78;53.47;99980.88;4391855;32;32285;-84
2022/04/27 06:39:45;;;;;;;8.77;6.22;;;;;;;16.69;54.74;99992.09;4401075;32;31708;-84
2022/04/27 06:42:13;;;;;;;12.65;7.07;;;;;;;16.67;51.27;99995.84;4400630;32;34099;-84
2022/04/27 06:44:48;;;;;;;8.48;6.53;;;;;;;16.70;53.40;99987.63;4400505;32;33698;-84
2022/04/27 06:47:24;;;;;;;10.10;7.10;;;;;;;16.62;54.92;99986.34;4400305;32;34295;-84
2022/04/27 06:50:12;;;;;;;9.95;6.40;;;;;;;16.86;51.95;99993.72;4389054;32;33364;-84
2022/04/27 06:52:45;;;;;;;10.65;6.82;;;;;;;16.97;51.58;99996.50;4399999;32;33802;-85
2022/04/27 06:55:20;;;;;;;12.57;6.47;;;;;;;16.63;53.61;99988.03;4399803;32;33102;-84
2022/04/27 06:57:54;;;;;;;11.30;7.85;;;;;;;16.44;56.29;100006.19;4398651;32;33903;-84
2022/04/27 07:00:25;;;;;;;14.65;8.98;;;;;;;16.73;57.05;100006.13;4400032;32;32833;-84
2022/04/27 07:02:54;;;;;;;17.02;9.25;;;;;;;16.56;58.05;100013.37;4399667;32;33214;-85
2022/04/27 07:05:24;;;;;;;13.62;9.13;;;;;;;16.65;58.23;100007.44;4380418;32;33654;-84
2022/04/27 07:07:56;;;;;;;15.15;9.60;;;;;;;16.78;57.23;100004.88;4392843;32;33555;-85
2022/04/27 07:10:26;;;;;;;13.05;8.70;;;;;;;16.60;58.68;100014.88;4389236;32;33336;-86
2022/04/27 07:13:05;;;;;;;13.32;9.70;;;;;;;16.57;58.22;100014.25;4394082;32;34132;-85
2022/04/27 07:15:34;;;;;;;12.63;9.45;;;;;;;16.77;57.71;100012.97;4401043;32;33029;-85
2022/04/27 07:18:06;;;;;;;15.75;10.35;;;;;;;16.79;57.26;100013.72;4393765;32;33132;-85
2022/04/27 07:20:34;;;;;;;14.20;9.45;;;;;;;16.75;56.89;100017.53;4399982;32;33708;-86
2022/04/27 07:23:03;;;;;;;15.00;9.98;;;;;;;16.44;58.48;100024.84;4387566;32;34226;-85
2022/04/27 07:25:33;;;;;;;11.90;9.48;;;;;;;16.16;59.31;100031.06;4386464;32;34046;-85
2022/04/27 07:28:00;;;;;;;16.55;10.15;;;;;;;16.33;59.09;100019.34;4399537;32;33773;-86
2022/04/27 07:30:33;;;;;;;13.60;10.37;;;;;;;16.38;59.15;100026.09;4388537;32;32178;-86
2022/04/27 07:33:02;;;;;;;11.27;9.27;;;;;;;16.71;57.20;100022.22;4399783;32;32628;-86
2022/04/27 07:35:30;;;;;;;14.65;10.52;;;;;;;16.75;57.80;100017.53;4386718;32;33017;-86
2022/04/27 07:37:58;;;;;;;15.82;10.02;;;;;;;16.79;58.16;100029.72;4386682;32;33003;-85
2022/04/27 07:40:27;;;;;;;15.30;9.48;;;;;;;16.76;57.57;100029.91;4399414;32;32923;-86
2022/04/27 07:42:59;;;;;;;16.08;10.40;;;;;;;16.66;57.90;100034.97;4399504;32;33406;-86
2022/04/27 07:45:29;;;;;;;17.85;10.93;;;;;;;16.91;57.45;100028.06;4387540;32;33018;-85
2022/04/27 07:48:03;;;;;;;14.27;9.88;;;;;;;17.12;57.09;100032.81;4397275;32;33722;-85
2022/04/27 07:50:32;;;;;;;13.80;9.32;;;;;;;17.22;54.98;100027.72;4386119;32;31589;-85
2022/04/27 07:53:00;;;;;;;13.38;9.30;;;;;;;17.26;55.12;100023.03;4398642;32;33644;-86
2022/04/27 07:55:32;;;;;;;14.75;9.20;;;;;;;17.01;56.68;100035.34;4389194;32;33886;-85
2022/04/27 07:58:01;;;;;;;13.10;9.05;;;;;;;17.24;56.48;100041.81;4391231;32;33459;-86
2022/04/27 08:00:30;;;;;;;13.70;9.40;;;;;;;17.27;55.32;100038.94;4387115;32;32808;-86
2022/04/27 08:03:01;;;;;;;15.90;10.25;;;;;;;17.01;56.67;100040.69;4386744;32;33603;-85
2022/04/27 08:05:29;;;;;;;11.07;8.40;;;;;;;17.30;55.98;100035.22;4387525;32;32890;-86
2022/04/27 08:07:58;;;;;;;19.10;9.05;;;;;;;17.45;55.72;100039.50;4392434;32;32933;-86
2022/04/27 08:10:26;;;;;;;14.68;8.82;;;;;;;17.21;56.40;100038.50;4387180;32;33168;-86
2022/04/27 08:12:54;;;;;;;11.02;7.95;;;;;;;17.06;53.83;100033.22;4392769;32;34645;-86
2022/04/27 08:15:26;;;;;;;11.12;8.40;;;;;;;17.40;55.42;100038.97;4398367;32;34501;-86
2022/04/27 08:17:56;;;;;;;12.43;8.35;;;;;;;17.29;52.99;100039.69;4387041;32;33745;-86
2022/04/27 08:23:23;;;;;;;14.57;8.35;;;;;;;17.69;52.48;100041.44;4396136;32;33294;-86
2022/04/27 08:25:50;;;;;;;12.70;9.57;;;;;;;17.64;55.13;100052.44;4398835;32;34346;-86
2022/04/27 08:28:20;;;;;;;12.98;9.13;;;;;;;17.61;53.61;100050.84;4378558;32;32303;-86
2022/04/27 08:30:53;;;;;;;13.50;9.38;;;;;;;17.46;54.58;100051.88;4385792;32;32208;-86
2022/04/27 08:33:21;;;;;;;13.25;8.48;;;;;;;17.05;53.33;100052.88;4393354;32;32718;-86
2022/04/27 08:35:51;;;;;;;15.38;8.68;;;;;;;17.43;53.21;100052.09;4390915;32;33244;-86
2022/04/27 08:38:40;;;;;;;10.30;8.38;;;;;;;17.54;52.62;100054.88;4376557;32;34407;-86
2022/04/27 08:41:08;;;;;;;16.23;8.20;;;;;;;18.09;52.24;100061.78;4387447;32;35356;-85
2022/04/27 08:43:37;;;;;;;12.35;8.50;;;;;;;18.30;50.55;100055.84;4387059;32;33187;-86
2022/04/27 08:46:08;;;;;;;13.10;8.27;;;;;;;17.89;49.46;100056.97;4398802;32;34087;-86
2022/04/27 08:48:37;;;;;;;12.40;8.90;;;;;;;17.90;51.59;100061.37;4399361;32;33323;-86
2022/04/27 08:51:06;;;;;;;13.32;8.80;;;;;;;17.99;50.92;100050.00;4399049;32;34640;-86
2022/04/27 08:53:34;;;;;;;14.63;8.98;;;;;;;17.80;51.70;100049.59;4378900;32;34001;-86
2022/04/27 08:56:05;;;;;;;14.95;10.20;;;;;;;17.65;53.95;100049.66;4394563;32;34551;-86
2022/04/27 08:58:33;;;;;;;15.13;10.50;;;;;;;18.07;53.73;100049.47;4398371;32;33782;-85
2022/04/27 09:01:12;;;;;;;14.35;10.07;;;;;;;18.19;52.76;100050.44;4382651;32;33469;-86
2022/04/27 09:03:44;;;;;;;16.73;10.30;;;;;;;18.16;53.36;100040.81;4388282;32;34036;-86
2022/04/27 09:06:15;;;;;;;15.00;10.32;;;;;;;17.85;54.22;100047.44;4389992;32;33101;-86
2022/04/27 09:08:47;;;;;;;15.02;10.13;;;;;;;17.56;54.58;100050.28;4400362;32;33651;-86
2022/04/27 09:11:20;;;;;;;14.82;9.75;;;;;;;18.29;53.06;100046.12;4395174;32;33475;-86
2022/04/27 09:13:50;;;;;;;12.52;10.13;;;;;;;18.48;52.42;100046.50;4401271;32;31935;-86
2022/04/27 09:16:21;;;;;;;13.07;10.05;;;;;;;18.68;52.53;100037.91;4400148;32;33455;-86
2022/04/27 09:21:58;;;;;;;12.60;9.73;;;;;;;18.84;51.69;100051.00;4388937;32;33128;-86
2022/04/27 09:24:28;;;;;;;15.98;10.00;;;;;;;18.93;51.42;100046.78;4400810;32;32919;-86
2022/04/27 09:27:12;;;;;;;12.88;9.77;;;;;;;18.78;50.90;100047.94;4393539;32;33099;-86
2022/04/27 09:29:41;;;;;;;13.30;10.40;;;;;;;18.83;51.18;100051.13;4400495;32;32834;-86
2022/04/27 09:32:17;;;;;;;13.45;9.95;;;;;;;18.81;50.67;100053.06;4375341;32;33503;-86
2022/04/27 09:34:49;;;;;;;14.20;10.65;;;;;;;18.99;50.60;100046.38;4392794;32;33647;-86
2022/04/27 09:37:21;;;;;;;12.43;10.50;;;;;;;18.46;51.66;100053.78;4399278;32;33264;-86
2022/04/27 09:40:04;;;;;;;15.15;11.05;;;;;;;18.90;50.22;100044.37;4380828;32;33668;-86
2022/04/27 09:42:35;;;;;;;13.35;8.98;;;;;;;18.85;50.31;100050.06;4401498;32;33244;-86
2022/04/27 09:45:27;;;;;;;13.50;9.70;;;;;;;18.71;50.96;100047.56;4399186;32;34171;-86
2022/04/27 09:48:04;;;;;;;18.02;10.50;;;;;;;18.86;51.40;100034.84;4401336;32;34396;-90
2022/04/27 09:51:04;;;;;;;14.10;9.18;;;;;;;18.76;51.40;100045.38;4377153;32;32685;-88
2022/04/27 09:53:37;;;;;;;20.30;10.35;;;;;;;19.09;50.23;100036.66;4377000;32;32712;-89
2022/04/27 09:56:12;;;;;;;13.85;9.55;;;;;;;19.42;49.73;100040.44;4400934;32;33778;-89
2022/04/27 09:58:54;;;;;;;13.15;9.43;;;;;;;19.35;49.31;100036.50;4392101;32;34348;-89
2022/04/27 10:01:35;;;;;;;13.15;8.82;;;;;;;19.15;49.82;100041.56;4401251;32;34870;-89
2022/04/27 10:04:03;;;;;;;;;;;;;;;19.04;48.75;100038.84;4379622;32;32501;-88
2022/04/27 10:06:34;;;;;;;10.95;8.68;;;;;;;18.81;50.13;100045.03;4391821;32;33822;-89
2022/04/27 10:09:05;;;;;;;12.23;9.03;;;;;;;18.45;51.29;100052.06;4391613;32;34794;-89
2022/04/27 10:11:56;;;;;;;12.82;9.48;;;;;;;18.63;50.05;100049.88;4388885;32;33133;-89
2022/04/27 10:14:27;;;;;;;11.73;9.13;;;;;;;18.50;50.92;100052.59;4404339;32;33250;-89
2022/04/27 10:17:00;;;;;;;14.68;9.88;;;;;;;18.53;51.62;100049.72;4391886;32;33083;-88
2022/04/27 10:19:28;;;;;;;12.55;9.65;;;;;;;18.64;49.77;100054.28;4388626;32;33756;-89
2022/04/27 10:22:05;;;;;;;13.48;9.65;;;;;;;18.55;50.37;100060.28;4403593;32;33089;-89
2022/04/27 10:24:46;;;;;;;13.07;9.70;;;;;;;18.47;51.68;100060.84;4371467;32;33135;-89
2022/04/27 10:27:33;;;;;;;16.48;10.07;;;;;;;18.41;52.19;100074.66;4398809;32;32674;-89
2022/04/27 10:32:55;;;;;;;15.93;11.38;;;;;;;17.95;54.49;100069.06;4380197;32;32710;-89
2022/04/27 10:35:35;;;;;;;16.40;11.02;;;;;;;17.96;54.04;100070.75;4398162;32;31135;-89
2022/04/27 10:38:05;;;;;;;14.38;10.70;;;;;;;17.80;54.66;100068.28;4387241;32;32661;-89
2022/04/27 10:40:40;;;;;;;16.27;11.48;;;;;;;17.83;54.50;100074.28;4391781;32;32664;-89
2022/04/27 10:43:28;;;;;;;17.45;11.98;;;;;;;17.97;54.39;100078.66;4370846;32;34211;-89
2022/04/27 10:46:38;;;;;;;14.82;11.12;;;;;;;17.83;55.41;100074.28;4388376;32;33434;-85
2022/04/27 10:49:28;;;;;;;17.05;12.57;;;;;;;17.45;57.02;100081.34;4378612;32;32893;-86
2022/04/27 10:52:03;;;;;;;18.62;12.18;;;;;;;17.45;57.39;100074.19;4399920;32;34399;-86
2022/04/27 10:54:33;;;;;;;17.87;13.32;;;;;;;17.46;57.10;100067.91;4375306;32;33181;-86
2022/04/27 10:57:13;;;;;;;16.50;12.23;;;;;;;17.66;55.53;100063.87;4396594;32;32141;-85
2022/04/27 10:59:56;;;;;;;18.17;12.65;;;;;;;17.63;55.86;100074.78;4389111;32;34181;-86
2022/04/27 11:02:41;;;;;;;15.68;11.98;;;;;;;17.49;56.48;100067.69;4402104;32;33922;-86
2022/04/27 11:05:13;;;;;;;16.62;12.75;;;;;;;17.59;56.08;100068.78;4380988;32;32956;-85
2022/04/27 11:07:59;;;;;;;17.30;12.10;;;;;;;17.40;56.54;100076.31;4400230;32;34497;-86
2022/04/27 11:10:28;;;;;;;15.93;12.55;;;;;;;17.23;57.13;100076.59;4390285;32;32707;-86
2022/04/27 11:13:01;;;;;;;16.23;10.80;;;;;;;17.56;56.06;100074.31;4395613;32;34755;-86
2022/04/27 11:15:29;;;;;;;19.40;12.13;;;;;;;17.53;55.76;100074.53;4399620;32;35051;-86
2022/04/27 11:18:03;;;;;;;17.42;11.85;;;;;;;17.53;55.76;100079.88;4382754;32;33944;-86
2022/04/27 11:20:39;;;;;;;14.73;11.00;;;;;;;17.17;56.28;100083.19;4397183;32;34627;-86
2022/04/27 11:23:30;;;;;;;18.00;12.37;;;;;;;16.98;57.78;100088.91;4384751;32;34044;-86
2022/04/27 11:26:24;;;;;;;16.17;11.10;;;;;;;17.12;57.35;100082.66;4402324;32;33800;-86
2022/04/27 11:28:54;;;;;;;15.65;11.50;;;;;;;17.08;57.68;100079.31;4388840;32;32074;-85
2022/04/27 11:31:32;;;;;;;14.93;10.23;;;;;;;16.98;57.70;100083.56;4394070;32;34240;-86
2022/04/27 11:34:01;;;;;;;16.12;11.52;;;;;;;16.94;57.74;100087.38;4400613;32;33803;-86
2022/04/27 11:36:34;;;;;;;14.45;10.77;;;;;;;17.14;57.54;100083.44;4376234;32;34004;-86
2022/04/27 11:39:03;;;;;;;15.15;11.10;;;;;;;17.14;57.55;100083.44;4389409;32;34298;-86
2022/04/27 11:41:35;;;;;;;17.15;11.93;;;;;;;16.86;58.22;100090.56;4377297;32;33524;-86
2022/04/27 11:44:21;;;;;;;16.55;12.48;;;;;;;16.56;58.94;100088.00;4398535;32;34028;-86
2022/04/27 11:46:50;;;;;;;14.35;11.10;;;;;;;16.83;58.68;100095.25;4378467;32;32984;-86
2022/04/27 11:49:24;;;;;;;16.80;12.05;;;;;;;16.77;58.46;100092.97;4397454;32;34514;-85
2022/04/27 11:51:55;;;;;;;20.17;11.48;;;;;;;16.49;59.08;100093.84;4382767;32;32716;-86
2022/04/27 11:54:34;;;;;;;14.73;10.65;;;;;;;16.56;58.86;100098.69;4395512;32;34766;-86
2022/04/27 11:57:07;;;;;;;18.52;12.32;;;;;;;16.45;58.15;100095.84;4375481;32;32775;-86
2022/04/27 11:59:45;;;;;;;17.83;12.48;;;;;;;16.13;59.40;100096.03;4383912;32;33648;-86
2022/04/27 12:02:21;;;;;;;20.58;12.07;;;;;;;16.32;58.41;100102.91;4396447;32;33288;-86
2022/04/27 12:04:59;;;;;;;18.85;12.85;;;;;;;16.54;57.85;100094.41;4391612;32;33860;-86